sensor_id;sensor_type;location;lat;lon;timestamp;pressure;altitude;pressure_sealevel;temperature;humidity
69911;BME280;63555;49.920;17.868;2023-08-08T00:04:05;98472.59;;;12.19;100.00
69911;BME280;63555;49.920;17.868;2023-08-08T00:09:05;98468.69;;;12.23;100.00
69911;BME280;63555;49.920;17.868;2023-08-08T00:14:06;98464.81;;;12.27;100.00
69911;BME280;63555;49.920;17.868;2023-08-08T00:19:07;98460.81;;;12.32;100.00
69911;BME280;63555;49.920;17.868;2023-08-08T00:24:07;98461.38;;;12.36;100.00
69911;BME280;63555;49.920;17.868;2023-08-08T00:29:08;98459.44;;;12.38;100.00
69911;BME280;63555;49.920;17.868;2023-08-08T00:34:08;98458.16;;;12.32;100.00
69911;BME280;63555;49.920;17.868;2023-08-08T00:39:08;98475.66;;;12.24;100.00
69911;BME280;63555;49.920;17.868;2023-08-08T00:44:10;98480.31;;;12.10;100.00
69911;BME280;63555;49.920;17.868;2023-08-08T00:49:10;98477.50;;;12.02;100.00
69911;BME280;63555;49.920;17.868;2023-08-08T00:54:11;98477.88;;;11.98;100.00
69911;BME280;63555;49.920;17.868;2023-08-08T00:59:13;98482.72;;;11.93;100.00
69911;BME280;63555;49.920;17.868;2023-08-08T01:04:16;98474.41;;;11.76;100.00
69911;BME280;63555;49.920;17.868;2023-08-08T01:09:37;98483.75;;;11.60;100.00
69911;BME280;63555;49.920;17.868;2023-08-08T01:14:40;98477.97;;;11.45;100.00
69911;BME280;63555;49.920;17.868;2023-08-08T01:19:42;98478.97;;;11.33;100.00
69911;BME280;63555;49.920;17.868;2023-08-08T01:24:43;98469.16;;;11.24;100.00
69911;BME280;63555;49.920;17.868;2023-08-08T01:29:45;98471.22;;;11.20;100.00
69911;BME280;63555;49.920;17.868;2023-08-08T01:34:46;98473.03;;;11.20;100.00
69911;BME280;63555;49.920;17.868;2023-08-08T01:39:46;98464.72;;;11.24;100.00
69911;BME280;63555;49.920;17.868;2023-08-08T01:44:48;98473.47;;;11.25;100.00
69911;BME280;63555;49.920;17.868;2023-08-08T01:49:49;98473.84;;;11.20;100.00
69911;BME280;63555;49.920;17.868;2023-08-08T01:54:49;98479.72;;;11.24;100.00
69911;BME280;63555;49.920;17.868;2023-08-08T01:59:49;98473.00;;;11.31;100.00
69911;BME280;63555;49.920;17.868;2023-08-08T02:04:50;98489.03;;;11.39;100.00
69911;BME280;63555;49.920;17.868;2023-08-08T02:09:50;98487.56;;;11.46;100.00
69911;BME280;63555;49.920;17.868;2023-08-08T02:14:51;98497.53;;;11.42;100.00
69911;BME280;63555;49.920;17.868;2023-08-08T02:19:51;98502.88;;;11.31;100.00
69911;BME280;63555;49.920;17.868;2023-08-08T02:24:52;98503.00;;;11.18;100.00
69911;BME280;63555;49.920;17.868;2023-08-08T02:29:52;98504.16;;;11.05;100.00
69911;BME280;63555;49.920;17.868;2023-08-08T02:34:53;98503.94;;;10.97;100.00
69911;BME280;63555;49.920;17.868;2023-08-08T02:39:53;98524.31;;;10.95;100.00
69911;BME280;63555;49.920;17.868;2023-08-08T02:44:53;98523.75;;;10.91;100.00
69911;BME280;63555;49.920;17.868;2023-08-08T02:49:54;98509.84;;;10.89;100.00
69911;BME280;63555;49.920;17.868;2023-08-08T02:54:54;98517.28;;;10.84;100.00
69911;BME280;63555;49.920;17.868;2023-08-08T02:59:54;98513.81;;;10.83;100.00
69911;BME280;63555;49.920;17.868;2023-08-08T03:04:55;98536.84;;;10.81;100.00
69911;BME280;63555;49.920;17.868;2023-08-08T03:09:55;98529.75;;;10.82;100.00
69911;BME280;63555;49.920;17.868;2023-08-08T03:14:56;98533.00;;;10.74;100.00
69911;BME280;63555;49.920;17.868;2023-08-08T03:19:57;98523.91;;;10.67;100.00
69911;BME280;63555;49.920;17.868;2023-08-08T03:24:57;98527.75;;;10.63;100.00
69911;BME280;63555;49.920;17.868;2023-08-08T03:29:58;98553.16;;;10.64;100.00
69911;BME280;63555;49.920;17.868;2023-08-08T03:34:59;98541.53;;;10.67;100.00
69911;BME280;63555;49.920;17.868;2023-08-08T03:39:59;98545.47;;;10.72;100.00
69911;BME280;63555;49.920;17.868;2023-08-08T03:44:59;98542.59;;;10.75;100.00
69911;BME280;63555;49.920;17.868;2023-08-08T03:50:00;98548.56;;;10.89;100.00
69911;BME280;63555;49.920;17.868;2023-08-08T03:55:00;98565.47;;;10.97;100.00
69911;BME280;63555;49.920;17.868;2023-08-08T04:00:00;98566.28;;;10.98;100.00
69911;BME280;63555;49.920;17.868;2023-08-08T04:05:01;98559.72;;;10.92;100.00
69911;BME280;63555;49.920;17.868;2023-08-08T04:10:01;98577.22;;;10.93;100.00
69911;BME280;63555;49.920;17.868;2023-08-08T04:15:02;98581.66;;;10.93;100.00
69911;BME280;63555;49.920;17.868;2023-08-08T04:20:02;98590.16;;;10.96;100.00
69911;BME280;63555;49.920;17.868;2023-08-08T04:25:07;98598.78;;;10.98;100.00
69911;BME280;63555;49.920;17.868;2023-08-08T04:30:08;98596.63;;;11.03;100.00
69911;BME280;63555;49.920;17.868;2023-08-08T04:35:09;98595.75;;;11.14;100.00
69911;BME280;63555;49.920;17.868;2023-08-08T04:40:10;98602.69;;;11.26;100.00
69911;BME280;63555;49.920;17.868;2023-08-08T04:45:11;98603.53;;;11.38;100.00
69911;BME280;63555;49.920;17.868;2023-08-08T04:50:13;98613.09;;;11.50;100.00
69911;BME280;63555;49.920;17.868;2023-08-08T04:55:13;98614.13;;;11.59;100.00
69911;BME280;63555;49.920;17.868;2023-08-08T05:00:14;98621.31;;;11.68;100.00
69911;BME280;63555;49.920;17.868;2023-08-08T05:05:14;98629.09;;;11.80;100.00
69911;BME280;63555;49.920;17.868;2023-08-08T05:10:14;98629.75;;;11.94;100.00
69911;BME280;63555;49.920;17.868;2023-08-08T05:15:15;98637.63;;;12.05;100.00
69911;BME280;63555;49.920;17.868;2023-08-08T05:20:16;98649.69;;;12.19;100.00
69911;BME280;63555;49.920;17.868;2023-08-08T05:25:16;98657.31;;;12.33;100.00
69911;BME280;63555;49.920;17.868;2023-08-08T05:30:17;98660.19;;;12.51;100.00
69911;BME280;63555;49.920;17.868;2023-08-08T05:35:17;98668.31;;;12.89;100.00
69911;BME280;63555;49.920;17.868;2023-08-08T05:40:17;98660.97;;;13.23;100.00
69911;BME280;63555;49.920;17.868;2023-08-08T05:45:18;98656.25;;;13.27;100.00
69911;BME280;63555;49.920;17.868;2023-08-08T05:50:18;98667.13;;;13.24;100.00
69911;BME280;63555;49.920;17.868;2023-08-08T05:55:19;98648.72;;;13.22;100.00
69911;BME280;63555;49.920;17.868;2023-08-08T06:00:20;98628.94;;;13.26;100.00
69911;BME280;63555;49.920;17.868;2023-08-08T06:05:22;98639.53;;;13.36;100.00
69911;BME280;63555;49.920;17.868;2023-08-08T06:10:23;98635.94;;;13.56;100.00
69911;BME280;63555;49.920;17.868;2023-08-08T06:15:23;98655.81;;;14.00;100.00
69911;BME280;63555;49.920;17.868;2023-08-08T06:20:23;98637.97;;;15.33;100.00
69911;BME280;63555;49.920;17.868;2023-08-08T06:25:24;98645.59;;;16.70;100.00
69911;BME280;63555;49.920;17.868;2023-08-08T06:30:24;98639.59;;;17.44;100.00
69911;BME280;63555;49.920;17.868;2023-08-08T06:35:24;98635.22;;;18.18;100.00
69911;BME280;63555;49.920;17.868;2023-08-08T06:40:25;98644.25;;;19.21;100.00
69911;BME280;63555;49.920;17.868;2023-08-08T06:45:25;98638.06;;;20.14;100.00
69911;BME280;63555;49.920;17.868;2023-08-08T06:50:26;98651.47;;;20.89;100.00
69911;BME280;63555;49.920;17.868;2023-08-08T06:55:26;98646.41;;;21.74;100.00
69911;BME280;63555;49.920;17.868;2023-08-08T07:00:27;98641.47;;;22.63;100.00
69911;BME280;63555;49.920;17.868;2023-08-08T07:05:28;98635.94;;;23.81;100.00
69911;BME280;63555;49.920;17.868;2023-08-08T07:10:29;98635.75;;;25.22;96.22
69911;BME280;63555;49.920;17.868;2023-08-08T07:15:30;98639.47;;;25.27;89.25
69911;BME280;63555;49.920;17.868;2023-08-08T07:20:31;98648.91;;;24.32;87.77
69911;BME280;63555;49.920;17.868;2023-08-08T07:25:31;98646.44;;;22.87;87.84
69911;BME280;63555;49.920;17.868;2023-08-08T07:30:32;98662.56;;;21.01;89.10
69911;BME280;63555;49.920;17.868;2023-08-08T07:35:32;98646.28;;;20.12;92.01
69911;BME280;63555;49.920;17.868;2023-08-08T07:40:33;98639.38;;;20.18;94.82
69911;BME280;63555;49.920;17.868;2023-08-08T07:45:33;98646.94;;;20.89;93.90
69911;BME280;63555;49.920;17.868;2023-08-08T07:50:34;98626.13;;;22.57;88.95
69911;BME280;63555;49.920;17.868;2023-08-08T07:55:34;98632.97;;;23.63;84.64
69911;BME280;63555;49.920;17.868;2023-08-08T08:00:34;98620.19;;;23.78;83.74
69911;BME280;63555;49.920;17.868;2023-08-08T08:05:35;98628.28;;;22.96;82.66
69911;BME280;63555;49.920;17.868;2023-08-08T08:10:36;98616.47;;;22.13;83.53
69911;BME280;63555;49.920;17.868;2023-08-08T08:15:36;98615.53;;;21.85;82.78
69911;BME280;63555;49.920;17.868;2023-08-08T08:20:36;98626.78;;;21.95;81.54
69911;BME280;63555;49.920;17.868;2023-08-08T08:25:37;98629.63;;;22.30;79.51
69911;BME280;63555;49.920;17.868;2023-08-08T08:30:37;98617.97;;;23.41;74.06
69911;BME280;63555;49.920;17.868;2023-08-08T08:35:38;98614.91;;;24.44;70.64
69911;BME280;63555;49.920;17.868;2023-08-08T08:40:40;98622.91;;;25.62;63.01
69911;BME280;63555;49.920;17.868;2023-08-08T08:45:43;98609.72;;;24.36;61.40
69911;BME280;63555;49.920;17.868;2023-08-08T08:50:43;98616.09;;;23.00;63.48
69911;BME280;63555;49.920;17.868;2023-08-08T08:55:45;98606.19;;;23.07;59.53
69911;BME280;63555;49.920;17.868;2023-08-08T09:00:47;98602.41;;;22.95;56.73
69911;BME280;63555;49.920;17.868;2023-08-08T09:05:48;98602.16;;;23.79;53.10
69911;BME280;63555;49.920;17.868;2023-08-08T09:10:49;98601.31;;;23.24;51.84
69911;BME280;63555;49.920;17.868;2023-08-08T09:15:50;98616.63;;;23.71;49.87
69911;BME280;63555;49.920;17.868;2023-08-08T09:20:51;98609.03;;;23.40;50.42
69911;BME280;63555;49.920;17.868;2023-08-08T09:25:51;98603.50;;;23.48;48.83
69911;BME280;63555;49.920;17.868;2023-08-08T09:30:55;98605.16;;;24.50;47.23
69911;BME280;63555;49.920;17.868;2023-08-08T09:35:55;98612.94;;;23.38;46.55
69911;BME280;63555;49.920;17.868;2023-08-08T09:40:56;98622.44;;;22.58;48.15
69911;BME280;63555;49.920;17.868;2023-08-08T09:45:56;98634.22;;;21.57;48.46
69911;BME280;63555;49.920;17.868;2023-08-08T09:51:01;98625.88;;;20.49;50.36
69911;BME280;63555;49.920;17.868;2023-08-08T09:56:03;98622.78;;;19.99;50.93
69911;BME280;63555;49.920;17.868;2023-08-08T10:01:04;98607.00;;;20.94;49.95
69911;BME280;63555;49.920;17.868;2023-08-08T10:06:05;98598.03;;;23.35;47.00
69911;BME280;63555;49.920;17.868;2023-08-08T10:11:06;98606.56;;;24.79;43.77
69911;BME280;63555;49.920;17.868;2023-08-08T10:16:09;98604.44;;;23.89;44.66
69911;BME280;63555;49.920;17.868;2023-08-08T10:21:12;98604.56;;;22.50;46.73
69911;BME280;63555;49.920;17.868;2023-08-08T10:26:19;98614.41;;;22.65;45.85
69911;BME280;63555;49.920;17.868;2023-08-08T10:31:20;98601.97;;;22.92;45.22
69911;BME280;63555;49.920;17.868;2023-08-08T10:36:20;98612.59;;;23.06;44.25
69911;BME280;63555;49.920;17.868;2023-08-08T10:41:26;98606.06;;;22.32;45.35
69911;BME280;63555;49.920;17.868;2023-08-08T10:46:28;98616.97;;;22.23;46.35
69911;BME280;63555;49.920;17.868;2023-08-08T10:51:36;98614.22;;;22.45;45.92
69911;BME280;63555;49.920;17.868;2023-08-08T10:56:37;98609.72;;;22.24;45.64
69911;BME280;63555;49.920;17.868;2023-08-08T11:01:37;98612.34;;;21.96;45.73
69911;BME280;63555;49.920;17.868;2023-08-08T11:06:39;98601.81;;;21.58;45.93
69911;BME280;63555;49.920;17.868;2023-08-08T11:11:40;98603.75;;;21.28;46.28
69911;BME280;63555;49.920;17.868;2023-08-08T11:16:43;98605.22;;;21.16;47.18
69911;BME280;63555;49.920;17.868;2023-08-08T11:21:45;98585.31;;;21.40;46.29
69911;BME280;63555;49.920;17.868;2023-08-08T11:26:45;98594.59;;;21.59;46.64
69911;BME280;63555;49.920;17.868;2023-08-08T11:31:48;98582.44;;;22.48;45.19
69911;BME280;63555;49.920;17.868;2023-08-08T11:36:48;98600.81;;;22.73;43.93
69911;BME280;63555;49.920;17.868;2023-08-08T11:41:49;98608.22;;;22.43;43.83
69911;BME280;63555;49.920;17.868;2023-08-08T11:46:50;98608.13;;;21.87;45.34
69911;BME280;63555;49.920;17.868;2023-08-08T11:51:54;98607.81;;;21.60;45.67
69911;BME280;63555;49.920;17.868;2023-08-08T11:57:01;98619.00;;;21.13;45.90
69911;BME280;63555;49.920;17.868;2023-08-08T12:02:01;98609.31;;;20.97;46.27
69911;BME280;63555;49.920;17.868;2023-08-08T12:07:02;98603.31;;;20.95;46.05
69911;BME280;63555;49.920;17.868;2023-08-08T12:12:03;98599.78;;;20.95;46.47
69911;BME280;63555;49.920;17.868;2023-08-08T12:17:05;98602.84;;;20.92;46.37
69911;BME280;63555;49.920;17.868;2023-08-08T12:22:05;98596.81;;;21.05;46.14
69911;BME280;63555;49.920;17.868;2023-08-08T12:27:06;98591.81;;;21.16;46.43
69911;BME280;63555;49.920;17.868;2023-08-08T12:32:06;98584.38;;;21.48;45.77
69911;BME280;63555;49.920;17.868;2023-08-08T12:37:08;98584.63;;;21.53;45.83
69911;BME280;63555;49.920;17.868;2023-08-08T12:42:08;98578.84;;;21.35;46.13
69911;BME280;63555;49.920;17.868;2023-08-08T12:47:09;98588.03;;;21.11;46.60
69911;BME280;63555;49.920;17.868;2023-08-08T12:52:09;98590.53;;;20.97;47.05
69911;BME280;63555;49.920;17.868;2023-08-08T12:57:09;98591.72;;;21.10;47.37
69911;BME280;63555;49.920;17.868;2023-08-08T13:02:10;98582.22;;;22.01;46.36
69911;BME280;63555;49.920;17.868;2023-08-08T13:07:10;98573.09;;;22.16;45.50
69911;BME280;63555;49.920;17.868;2023-08-08T13:12:11;98578.81;;;21.49;46.67
69911;BME280;63555;49.920;17.868;2023-08-08T13:17:11;98572.25;;;20.86;48.53
69911;BME280;63555;49.920;17.868;2023-08-08T13:22:11;98574.63;;;20.66;49.03
69911;BME280;63555;49.920;17.868;2023-08-08T13:27:12;98562.38;;;21.74;47.43
69911;BME280;63555;49.920;17.868;2023-08-08T13:32:13;98541.66;;;24.08;42.92
69911;BME280;63555;49.920;17.868;2023-08-08T13:37:13;98530.00;;;26.51;39.44
69911;BME280;63555;49.920;17.868;2023-08-08T13:42:14;98522.34;;;26.84;38.53
69911;BME280;63555;49.920;17.868;2023-08-08T13:47:14;98535.72;;;25.03;41.38
69911;BME280;63555;49.920;17.868;2023-08-08T13:52:15;98533.63;;;25.12;41.45
69911;BME280;63555;49.920;17.868;2023-08-08T13:57:15;98523.59;;;26.45;39.19
69911;BME280;63555;49.920;17.868;2023-08-08T14:02:16;98523.34;;;24.83;40.90
69911;BME280;63555;49.920;17.868;2023-08-08T14:07:18;98532.50;;;23.02;43.71
69911;BME280;63555;49.920;17.868;2023-08-08T14:12:19;98537.44;;;22.29;45.09
69911;BME280;63555;49.920;17.868;2023-08-08T14:17:19;98531.66;;;22.95;44.66
69911;BME280;63555;49.920;17.868;2023-08-08T14:40:10;98504.38;;;27.26;36.40
69911;BME280;63555;49.920;17.868;2023-08-08T14:45:11;98489.56;;;26.38;37.65
69911;BME280;63555;49.920;17.868;2023-08-08T14:50:11;98489.16;;;27.85;36.21
69911;BME280;63555;49.920;17.868;2023-08-08T14:55:11;98490.97;;;29.70;33.30
69911;BME280;63555;49.920;17.868;2023-08-08T15:00:12;98495.25;;;28.98;34.12
69911;BME280;63555;49.920;17.868;2023-08-08T15:05:14;98481.66;;;28.34;34.56
69911;BME280;63555;49.920;17.868;2023-08-08T15:10:14;98496.47;;;28.20;33.93
69911;BME280;63555;49.920;17.868;2023-08-08T15:15:15;98478.91;;;27.87;34.45
69911;BME280;63555;49.920;17.868;2023-08-08T15:20:17;98482.69;;;27.98;34.26
69911;BME280;63555;49.920;17.868;2023-08-08T15:25:18;98484.47;;;26.66;35.75
69911;BME280;63555;49.920;17.868;2023-08-08T15:30:19;98492.28;;;24.67;38.47
69911;BME280;63555;49.920;17.868;2023-08-08T15:35:19;98488.63;;;23.56;40.75
69911;BME280;63555;49.920;17.868;2023-08-08T15:40:19;98484.91;;;22.96;41.03
69911;BME280;63555;49.920;17.868;2023-08-08T15:45:20;98478.06;;;23.94;38.99
69911;BME280;63555;49.920;17.868;2023-08-08T15:50:20;98485.09;;;23.75;38.93
69911;BME280;63555;49.920;17.868;2023-08-08T15:55:21;98475.34;;;23.54;38.37
69911;BME280;63555;49.920;17.868;2023-08-08T16:00:21;98471.41;;;24.03;39.17
69911;BME280;63555;49.920;17.868;2023-08-08T16:05:22;98475.72;;;25.08;37.84
69911;BME280;63555;49.920;17.868;2023-08-08T16:10:23;98463.34;;;24.87;38.42
69911;BME280;63555;49.920;17.868;2023-08-08T16:15:23;98468.53;;;23.91;40.05
69911;BME280;63555;49.920;17.868;2023-08-08T16:20:24;98471.09;;;23.18;40.83
69911;BME280;63555;49.920;17.868;2023-08-08T16:25:25;98480.16;;;22.22;41.91
69911;BME280;63555;49.920;17.868;2023-08-08T16:30:25;98484.19;;;21.41;43.13
69911;BME280;63555;49.920;17.868;2023-08-08T16:35:26;98485.53;;;20.79;43.96
69911;BME280;63555;49.920;17.868;2023-08-08T16:40:26;98490.72;;;20.36;44.77
69911;BME280;63555;49.920;17.868;2023-08-08T16:45:26;98477.78;;;20.11;45.47
69911;BME280;63555;49.920;17.868;2023-08-08T16:50:27;98492.50;;;19.92;46.54
69911;BME280;63555;49.920;17.868;2023-08-08T16:55:28;98489.97;;;19.76;47.83
69911;BME280;63555;49.920;17.868;2023-08-08T17:00:28;98484.50;;;19.46;48.51
69911;BME280;63555;49.920;17.868;2023-08-08T17:05:29;98487.41;;;19.14;49.42
69911;BME280;63555;49.920;17.868;2023-08-08T17:10:29;98486.13;;;18.70;50.35
69911;BME280;63555;49.920;17.868;2023-08-08T17:15:29;98486.44;;;18.28;51.46
69911;BME280;63555;49.920;17.868;2023-08-08T17:20:30;98482.31;;;17.93;52.13
69911;BME280;63555;49.920;17.868;2023-08-08T17:25:30;98482.16;;;17.62;53.25
69911;BME280;63555;49.920;17.868;2023-08-08T17:30:31;98478.97;;;17.34;54.13
69911;BME280;63555;49.920;17.868;2023-08-08T17:35:32;98480.25;;;17.06;55.44
69911;BME280;63555;49.920;17.868;2023-08-08T17:40:33;98490.34;;;16.86;56.52
69911;BME280;63555;49.920;17.868;2023-08-08T17:45:34;98478.19;;;16.75;58.12
69911;BME280;63555;49.920;17.868;2023-08-08T17:50:35;98480.66;;;16.69;58.98
69911;BME280;63555;49.920;17.868;2023-08-08T17:55:35;98490.38;;;16.52;59.95
69911;BME280;63555;49.920;17.868;2023-08-08T18:00:36;98483.28;;;16.35;60.34
69911;BME280;63555;49.920;17.868;2023-08-08T18:05:36;98486.50;;;16.12;61.91
69911;BME280;63555;49.920;17.868;2023-08-08T18:10:36;98479.56;;;15.93;62.55
69911;BME280;63555;49.920;17.868;2023-08-08T18:15:37;98480.81;;;15.81;62.96
69911;BME280;63555;49.920;17.868;2023-08-08T18:20:37;98487.59;;;15.76;63.48
69911;BME280;63555;49.920;17.868;2023-08-08T18:25:38;98485.09;;;15.74;63.80
69911;BME280;63555;49.920;17.868;2023-08-08T18:30:42;98486.09;;;15.73;64.42
69911;BME280;63555;49.920;17.868;2023-08-08T18:35:44;98488.28;;;15.78;65.03
69911;BME280;63555;49.920;17.868;2023-08-08T18:40:44;98495.31;;;15.87;65.32
69911;BME280;63555;49.920;17.868;2023-08-08T18:45:45;98495.38;;;15.95;65.44
69911;BME280;63555;49.920;17.868;2023-08-08T18:50:48;98504.03;;;15.97;65.33
69911;BME280;63555;49.920;17.868;2023-08-08T18:55:49;98517.47;;;15.96;65.54
69911;BME280;63555;49.920;17.868;2023-08-08T19:00:50;98524.25;;;15.90;65.50
69911;BME280;63555;49.920;17.868;2023-08-08T19:05:51;98512.22;;;15.78;65.67
69911;BME280;63555;49.920;17.868;2023-08-08T19:10:51;98515.41;;;15.64;65.97
69911;BME280;63555;49.920;17.868;2023-08-08T19:15:52;98508.91;;;15.48;66.36
69911;BME280;63555;49.920;17.868;2023-08-08T19:20:53;98516.81;;;15.40;66.65
69911;BME280;63555;49.920;17.868;2023-08-08T19:26:00;98526.91;;;15.37;66.78
69911;BME280;63555;49.920;17.868;2023-08-08T19:31:01;98525.09;;;15.37;66.96
69911;BME280;63555;49.920;17.868;2023-08-08T19:36:01;98509.84;;;15.39;66.90
69911;BME280;63555;49.920;17.868;2023-08-08T19:41:04;98513.31;;;15.40;66.78
69911;BME280;63555;49.920;17.868;2023-08-08T19:46:04;98531.78;;;15.41;67.06
69911;BME280;63555;49.920;17.868;2023-08-08T19:51:07;98556.53;;;15.42;67.07
69911;BME280;63555;49.920;17.868;2023-08-08T19:56:07;98578.91;;;15.39;68.09
69911;BME280;63555;49.920;17.868;2023-08-08T20:01:07;98575.97;;;15.42;68.18
69911;BME280;63555;49.920;17.868;2023-08-08T20:06:08;98582.94;;;15.43;68.28
69911;BME280;63555;49.920;17.868;2023-08-08T20:11:09;98563.88;;;15.30;69.06
69911;BME280;63555;49.920;17.868;2023-08-08T20:16:09;98549.59;;;14.58;71.77
69911;BME280;63555;49.920;17.868;2023-08-08T20:21:09;98530.78;;;13.86;75.12
69911;BME280;63555;49.920;17.868;2023-08-08T20:26:10;98527.59;;;13.53;76.92
69911;BME280;63555;49.920;17.868;2023-08-08T20:31:10;98528.16;;;13.37;77.54
69911;BME280;63555;49.920;17.868;2023-08-08T20:36:12;98535.41;;;13.26;78.16
69911;BME280;63555;49.920;17.868;2023-08-08T20:41:13;98543.78;;;13.21;78.22
69911;BME280;63555;49.920;17.868;2023-08-08T20:46:13;98537.22;;;13.25;78.34
69911;BME280;63555;49.920;17.868;2023-08-08T20:51:14;98540.72;;;13.26;78.07
69911;BME280;63555;49.920;17.868;2023-08-08T20:56:15;98535.69;;;13.23;77.67
69911;BME280;63555;49.920;17.868;2023-08-08T21:01:15;98534.84;;;13.22;77.52
69911;BME280;63555;49.920;17.868;2023-08-08T21:06:16;98532.47;;;13.19;77.60
69911;BME280;63555;49.920;17.868;2023-08-08T21:11:16;98535.25;;;13.18;77.47
69911;BME280;63555;49.920;17.868;2023-08-08T21:16:17;98536.25;;;13.26;77.27
69911;BME280;63555;49.920;17.868;2023-08-08T21:21:17;98521.47;;;13.33;77.01
69911;BME280;63555;49.920;17.868;2023-08-08T21:26:17;98525.53;;;13.37;76.91
69911;BME280;63555;49.920;17.868;2023-08-08T21:31:18;98518.53;;;13.46;77.00
69911;BME280;63555;49.920;17.868;2023-08-08T21:36:18;98521.88;;;13.58;76.70
69911;BME280;63555;49.920;17.868;2023-08-08T21:41:18;98516.00;;;13.74;76.42
69911;BME280;63555;49.920;17.868;2023-08-08T21:46:19;98518.25;;;13.88;75.94
69911;BME280;63555;49.920;17.868;2023-08-08T21:51:19;98519.19;;;14.06;75.42
69911;BME280;63555;49.920;17.868;2023-08-08T21:56:20;98520.25;;;14.23;74.91
69911;BME280;63555;49.920;17.868;2023-08-08T22:01:20;98509.59;;;14.42;74.06
69911;BME280;63555;49.920;17.868;2023-08-08T22:06:20;98502.03;;;14.47;73.86
69911;BME280;63555;49.920;17.868;2023-08-08T22:11:21;98503.84;;;14.47;73.93
69911;BME280;63555;49.920;17.868;2023-08-08T22:16:21;98495.03;;;14.46;73.81
69911;BME280;63555;49.920;17.868;2023-08-08T22:21:22;98503.28;;;14.43;73.84
69911;BME280;63555;49.920;17.868;2023-08-08T22:26:22;98515.84;;;14.41;74.00
69911;BME280;63555;49.920;17.868;2023-08-08T22:31:23;98514.88;;;14.42;73.90
69911;BME280;63555;49.920;17.868;2023-08-08T22:36:24;98525.50;;;14.42;73.87
69911;BME280;63555;49.920;17.868;2023-08-08T22:41:24;98523.94;;;14.40;73.87
69911;BME280;63555;49.920;17.868;2023-08-08T22:46:24;98525.50;;;14.42;73.75
69911;BME280;63555;49.920;17.868;2023-08-08T22:51:25;98520.75;;;14.46;73.83
69911;BME280;63555;49.920;17.868;2023-08-08T22:56:25;98527.44;;;14.50;73.78
69911;BME280;63555;49.920;17.868;2023-08-08T23:01:25;98522.94;;;14.50;73.42
69911;BME280;63555;49.920;17.868;2023-08-08T23:06:26;98526.28;;;14.52;73.46
69911;BME280;63555;49.920;17.868;2023-08-08T23:11:26;98529.34;;;14.57;73.17
69911;BME280;63555;49.920;17.868;2023-08-08T23:16:27;98529.50;;;14.56;73.52
69911;BME280;63555;49.920;17.868;2023-08-08T23:21:27;98535.41;;;14.40;73.75
69911;BME280;63555;49.920;17.868;2023-08-08T23:26:27;98533.50;;;14.23;74.32
69911;BME280;63555;49.920;17.868;2023-08-08T23:31:28;98527.00;;;14.08;74.97
69911;BME280;63555;49.920;17.868;2023-08-08T23:36:28;98531.75;;;13.94;75.64
69911;BME280;63555;49.920;17.868;2023-08-08T23:41:28;98526.31;;;13.86;75.82
69911;BME280;63555;49.920;17.868;2023-08-08T23:46:29;98525.34;;;13.78;76.35
69911;BME280;63555;49.920;17.868;2023-08-08T23:51:29;98537.50;;;13.70;76.56
69911;BME280;63555;49.920;17.868;2023-08-08T23:56:30;98526.63;;;13.64;77.19
